createdAt,value
2023-05-17T00:00:52.029Z,1.75
2023-05-17T00:03:19.720Z,2.15
2023-05-17T00:05:47.208Z,1.70
2023-05-17T00:08:14.680Z,1.50
2023-05-17T00:10:43.365Z,1.95
2023-05-17T00:13:10.845Z,1.90
2023-05-17T00:15:38.249Z,1.90
2023-05-17T00:18:06.103Z,1.85
2023-05-17T00:20:34.733Z,1.87
2023-05-17T00:23:03.067Z,1.40
2023-05-17T00:25:31.069Z,1.55
2023-05-17T00:27:58.743Z,1.80
2023-05-17T00:30:26.236Z,1.67
2023-05-17T00:32:54.111Z,1.62
2023-05-17T00:35:21.843Z,1.83
2023-05-17T00:37:49.397Z,1.62
2023-05-17T00:40:17.375Z,2.15
2023-05-17T00:42:44.923Z,1.60
2023-05-17T00:45:12.517Z,1.60
2023-05-17T00:47:40.957Z,1.70
2023-05-17T00:50:08.880Z,1.92
2023-05-17T00:52:36.654Z,1.60
2023-05-17T00:55:04.993Z,2.15
2023-05-17T00:57:32.604Z,1.70
2023-05-17T01:00:01.839Z,1.58
2023-05-17T01:04:59.513Z,1.65
2023-05-17T01:07:27.061Z,1.80
2023-05-17T01:09:54.816Z,1.90
2023-05-17T01:12:30.586Z,1.75
2023-05-17T01:15:07.502Z,1.60
2023-05-17T01:17:49.602Z,1.73
2023-05-17T01:20:28.693Z,1.67
2023-05-17T01:23:36.160Z,1.70
2023-05-17T01:26:06.942Z,1.70
2023-05-17T01:28:34.570Z,1.50
2023-05-17T01:31:03.225Z,1.67
2023-05-17T01:33:31.566Z,1.50
2023-05-17T01:35:59.178Z,1.62
2023-05-17T01:38:26.664Z,1.73
2023-05-17T01:41:01.925Z,1.50
2023-05-17T01:43:35.447Z,1.87
2023-05-17T01:46:05.930Z,1.60
2023-05-17T01:48:38.659Z,1.20
2023-05-17T01:51:06.476Z,1.77
2023-05-17T01:53:41.338Z,1.50
2023-05-17T01:56:10.775Z,1.55
2023-05-17T01:58:44.817Z,1.67
2023-05-17T02:01:16.032Z,1.55
2023-05-17T02:03:43.925Z,1.65
2023-05-17T02:06:11.830Z,1.35
2023-05-17T02:08:40.383Z,1.80
2023-05-17T02:11:08.264Z,1.58
2023-05-17T02:13:36.046Z,1.67
2023-05-17T02:16:03.897Z,1.50
2023-05-17T02:18:35.745Z,1.33
2023-05-17T02:21:04.327Z,1.73
2023-05-17T02:23:31.798Z,2.10
2023-05-17T02:25:59.327Z,1.62
2023-05-17T02:28:27.886Z,1.42
2023-05-17T02:30:56.565Z,1.70
2023-05-17T02:33:24.186Z,2.28
2023-05-17T02:35:52.100Z,1.50
2023-05-17T02:38:20.326Z,1.33
2023-05-17T02:40:47.795Z,1.25
2023-05-17T02:43:15.717Z,1.30
2023-05-17T02:45:43.933Z,1.85
2023-05-17T02:48:13.647Z,1.45
2023-05-17T02:50:41.466Z,1.62
2023-05-17T02:53:08.965Z,1.67
2023-05-17T02:55:36.662Z,1.70
2023-05-17T02:58:04.605Z,1.50
2023-05-17T03:00:32.494Z,1.70
2023-05-17T03:03:00.212Z,1.30
2023-05-17T03:05:28.282Z,1.48
2023-05-17T03:07:57.356Z,1.40
2023-05-17T03:10:24.820Z,1.27
2023-05-17T03:12:52.682Z,1.20
2023-05-17T03:15:20.814Z,1.55
2023-05-17T03:17:48.410Z,1.45
2023-05-17T03:20:16.844Z,1.30
2023-05-17T03:22:45.017Z,1.40
2023-05-17T03:25:12.486Z,1.75
2023-05-17T03:27:40.899Z,1.67
2023-05-17T03:30:09.011Z,1.73
2023-05-17T03:32:39.461Z,1.67
2023-05-17T03:35:08.307Z,1.50
2023-05-17T03:37:36.058Z,1.25
2023-05-17T03:40:03.729Z,1.85
2023-05-17T03:42:32.054Z,1.50
2023-05-17T03:45:00.206Z,1.45
2023-05-17T03:47:27.669Z,1.40
2023-05-17T03:49:55.462Z,1.60
2023-05-17T03:52:23.734Z,1.73
2023-05-17T03:54:51.447Z,1.48
2023-05-17T03:57:19.956Z,1.90
2023-05-17T03:59:47.370Z,1.60
2023-05-17T04:02:16.805Z,1.87
2023-05-17T04:04:51.182Z,1.62
2023-05-17T04:07:18.790Z,1.42
2023-05-17T04:09:46.882Z,1.40
2023-05-17T04:12:14.407Z,1.30
2023-05-17T04:14:41.838Z,1.40
2023-05-17T04:17:09.649Z,1.42
2023-05-17T04:19:37.200Z,1.40
2023-05-17T04:22:04.926Z,1.42
2023-05-17T04:24:32.794Z,1.45
2023-05-17T04:27:02.723Z,1.20
2023-05-17T04:29:31.017Z,1.85
2023-05-17T04:31:59.814Z,1.50
2023-05-17T04:34:27.675Z,1.40
2023-05-17T04:36:55.450Z,1.80
2023-05-17T04:39:23.276Z,1.25
2023-05-17T04:41:50.833Z,1.40
2023-05-17T04:44:18.673Z,1.35
2023-05-17T04:46:46.448Z,1.37
2023-05-17T04:49:14.447Z,1.40
2023-05-17T04:51:42.147Z,1.67
2023-05-17T04:54:10.575Z,1.50
2023-05-17T04:56:38.023Z,2.03
2023-05-17T04:59:09.300Z,2.25
2023-05-17T05:01:37.168Z,2.28
2023-05-17T05:04:07.162Z,1.87
2023-05-17T05:06:35.893Z,1.87
2023-05-17T05:09:04.328Z,2.08
2023-05-17T05:11:32.338Z,1.98
2023-05-17T05:14:00.143Z,1.70
2023-05-17T05:16:28.270Z,1.60
2023-05-17T05:18:56.697Z,1.67
2023-05-17T05:21:24.316Z,1.75
2023-05-17T05:23:52.863Z,1.60
2023-05-17T05:26:20.784Z,2.08
2023-05-17T05:28:48.298Z,1.42
2023-05-17T05:31:16.170Z,2.00
2023-05-17T05:33:44.198Z,1.50
2023-05-17T05:36:11.726Z,1.73
2023-05-17T05:38:39.490Z,1.85
2023-05-17T05:41:07.153Z,1.45
2023-05-17T05:46:05.632Z,2.08
2023-05-17T05:48:33.167Z,1.90
2023-05-17T05:51:00.855Z,1.58
2023-05-17T05:53:28.622Z,1.90
2023-05-17T05:55:56.263Z,1.73
2023-05-17T05:58:23.756Z,1.58
2023-05-17T06:00:51.961Z,1.60
2023-05-17T06:03:19.720Z,1.85
2023-05-17T06:05:47.294Z,1.50
2023-05-17T06:08:14.792Z,1.70
2023-05-17T06:10:42.513Z,1.75
2023-05-17T06:13:09.971Z,1.73
2023-05-17T06:15:37.558Z,1.65
2023-05-17T06:18:05.568Z,1.52
2023-05-17T06:20:33.140Z,1.60
2023-05-17T06:23:00.759Z,1.50
2023-05-17T06:25:28.545Z,1.67
2023-05-17T06:27:56.217Z,1.70
2023-05-17T06:30:23.857Z,1.45
2023-05-17T06:32:51.684Z,1.70
2023-05-17T06:35:19.434Z,1.45
2023-05-17T06:37:46.876Z,1.60
2023-05-17T06:40:31.489Z,1.60
2023-05-17T06:42:59.018Z,1.65
2023-05-17T06:45:27.497Z,1.90
2023-05-17T06:47:54.991Z,1.80
2023-05-17T06:50:22.536Z,1.48
2023-05-17T06:52:50.338Z,1.50
2023-05-17T06:55:17.824Z,1.70
2023-05-17T06:57:45.253Z,1.50
2023-05-17T07:00:13.603Z,1.67
2023-05-17T07:02:41.236Z,1.70
2023-05-17T07:05:09.017Z,1.58
2023-05-17T07:07:36.859Z,1.42
2023-05-17T07:10:05.749Z,1.70
2023-05-17T07:12:33.382Z,1.40
2023-05-17T07:15:01.125Z,1.40
2023-05-17T07:17:29.395Z,1.35
2023-05-17T07:19:57.019Z,1.67
2023-05-17T07:22:24.783Z,1.40
2023-05-17T07:24:52.247Z,1.40
2023-05-17T07:27:19.691Z,1.25
2023-05-17T07:29:47.388Z,1.60
2023-05-17T07:32:16.054Z,1.45
2023-05-17T07:34:43.743Z,1.80
2023-05-17T07:37:11.459Z,1.65
2023-05-17T07:39:39.236Z,1.45
2023-05-17T07:42:07.191Z,1.50
2023-05-17T07:44:34.902Z,1.75
2023-05-17T07:47:02.554Z,1.65
2023-05-17T07:49:30.898Z,1.45
2023-05-17T07:51:58.829Z,1.80
2023-05-17T07:54:27.773Z,1.90
2023-05-17T07:56:55.532Z,1.90
2023-05-17T07:59:23.549Z,2.42
2023-05-17T08:01:51.222Z,2.70
2023-05-17T08:04:24.220Z,2.42
2023-05-17T08:06:51.840Z,2.85
2023-05-17T08:09:20.086Z,3.17
2023-05-17T08:11:47.924Z,2.42
2023-05-17T08:14:16.001Z,2.40
2023-05-17T08:16:45.741Z,2.80
2023-05-17T08:19:13.824Z,2.25
2023-05-17T08:21:42.011Z,2.15
2023-05-17T08:24:09.849Z,2.12
2023-05-17T08:26:37.650Z,2.62
2023-05-17T08:29:05.193Z,2.67
2023-05-17T08:31:33.170Z,2.40
2023-05-17T08:34:00.776Z,2.10
2023-05-17T08:36:28.540Z,2.03
2023-05-17T08:38:56.396Z,2.25
2023-05-17T08:41:23.857Z,2.25
2023-05-17T08:43:51.308Z,2.17
2023-05-17T08:46:21.797Z,2.12
2023-05-17T08:48:53.530Z,1.90
2023-05-17T08:51:21.371Z,1.70
2023-05-17T08:53:50.631Z,1.95
2023-05-17T08:56:21.567Z,1.95
2023-05-17T08:58:56.170Z,2.05
2023-05-17T09:01:27.032Z,2.10
2023-05-17T09:03:57.706Z,1.95
2023-05-17T09:06:25.204Z,1.70
2023-05-17T09:08:54.714Z,2.00
2023-05-17T09:13:54.390Z,1.90
2023-05-17T09:16:22.203Z,1.50
2023-05-17T09:18:54.444Z,1.80
2023-05-17T09:21:23.081Z,1.98
2023-05-17T09:24:05.423Z,1.70
2023-05-17T09:26:44.644Z,1.92
2023-05-17T09:29:13.496Z,1.40
2023-05-17T09:31:41.264Z,1.90
2023-05-17T09:34:09.033Z,1.67
2023-05-17T09:36:37.626Z,1.58
2023-05-17T09:39:06.232Z,1.70
2023-05-17T09:41:41.718Z,1.70
2023-05-17T09:44:09.794Z,1.40
2023-05-17T09:46:41.712Z,1.80
2023-05-17T09:49:09.502Z,1.70
2023-05-17T09:51:39.635Z,1.48
2023-05-17T09:56:35.311Z,1.70
2023-05-17T09:59:03.304Z,1.60
2023-05-17T10:01:31.244Z,1.50
2023-05-17T10:04:00.421Z,1.60
2023-05-17T10:09:01.070Z,1.65
2023-05-17T10:11:34.102Z,1.42
2023-05-17T10:14:08.425Z,1.60
2023-05-17T10:16:37.872Z,1.55
2023-05-17T10:19:05.814Z,1.52
2023-05-17T10:21:33.314Z,1.58
2023-05-17T10:24:02.057Z,1.37
2023-05-17T10:26:30.368Z,1.50
2023-05-17T10:29:01.899Z,2.30
2023-05-17T10:31:29.897Z,1.80
2023-05-17T10:33:57.525Z,1.70
2023-05-17T10:36:25.115Z,1.40
2023-05-17T10:38:52.901Z,1.48
2023-05-17T10:41:24.578Z,1.60
2023-05-17T10:43:51.989Z,1.48
2023-05-17T10:46:21.448Z,1.40
2023-05-17T10:48:52.539Z,1.30
2023-05-17T10:51:24.770Z,1.60
2023-05-17T10:54:08.752Z,1.37
2023-05-17T10:56:40.213Z,1.58
2023-05-17T10:59:28.039Z,1.33
2023-05-17T11:01:59.837Z,1.40
2023-05-17T11:04:35.244Z,1.70
2023-05-17T11:07:28.077Z,1.50
2023-05-17T11:10:17.890Z,1.70
2023-05-17T11:12:48.126Z,1.37
2023-05-17T11:15:16.022Z,1.20
2023-05-17T11:17:43.490Z,1.45
2023-05-17T11:20:26.779Z,1.30
2023-05-17T11:23:01.541Z,1.50
2023-05-17T11:25:30.622Z,1.55
2023-05-17T11:27:58.312Z,1.20
2023-05-17T11:30:30.478Z,1.40
2023-05-17T11:33:02.521Z,1.48
2023-05-17T11:35:33.254Z,1.60
2023-05-17T11:38:20.263Z,1.42
2023-05-17T11:40:49.618Z,1.70
2023-05-17T11:43:17.905Z,1.65
2023-05-17T11:46:04.878Z,1.45
2023-05-17T11:48:32.795Z,1.33
2023-05-17T11:51:02.400Z,1.55
2023-05-17T11:53:30.131Z,1.33
2023-05-17T11:55:57.923Z,1.65
2023-05-17T11:58:26.128Z,1.20
2023-05-17T12:00:57.980Z,1.45
2023-05-17T12:03:26.874Z,1.25
2023-05-17T12:06:15.705Z,1.40
2023-05-17T12:08:44.518Z,1.35
2023-05-17T12:11:13.715Z,1.50
2023-05-17T12:13:44.126Z,1.40
2023-05-17T12:16:15.342Z,1.48
2023-05-17T12:18:47.341Z,1.50
2023-05-17T12:21:15.780Z,1.40
2023-05-17T12:23:46.512Z,1.48
2023-05-17T12:26:16.734Z,1.40
2023-05-17T12:28:57.566Z,1.58
2023-05-17T12:31:33.514Z,1.05
2023-05-17T12:34:02.583Z,1.40
2023-05-17T12:36:31.567Z,1.35
2023-05-17T12:38:59.097Z,1.40
2023-05-17T12:41:26.746Z,1.60
2023-05-17T12:44:06.151Z,1.30
2023-05-17T12:46:40.907Z,1.30
2023-05-17T12:49:09.355Z,1.10
2023-05-17T12:51:44.138Z,1.55
2023-05-17T12:54:13.015Z,1.27
2023-05-17T12:56:42.741Z,1.20
2023-05-17T12:59:16.775Z,1.33
2023-05-17T13:01:51.635Z,1.20
2023-05-17T13:04:19.915Z,1.10
2023-05-17T13:06:52.597Z,1.10
2023-05-17T13:09:21.910Z,1.05
2023-05-17T13:11:56.733Z,1.50
2023-05-17T13:14:40.270Z,1.30
2023-05-17T13:17:10.896Z,1.25
2023-05-17T13:19:38.690Z,1.52
2023-05-17T13:22:06.513Z,1.50
2023-05-17T13:24:35.086Z,1.33
2023-05-17T13:27:02.627Z,1.23
2023-05-17T13:29:38.788Z,1.27
2023-05-17T13:32:07.855Z,1.27
2023-05-17T13:34:35.632Z,1.12
2023-05-17T13:37:03.324Z,1.05
2023-05-17T13:39:31.182Z,1.10
2023-05-17T13:41:59.148Z,1.10
2023-05-17T13:44:26.694Z,1.23
2023-05-17T13:46:54.458Z,1.30
2023-05-17T13:49:21.982Z,1.20
2023-05-17T13:51:49.504Z,1.10
2023-05-17T13:54:20.160Z,1.10
2023-05-17T13:56:47.907Z,1.20
2023-05-17T13:59:15.431Z,1.20
2023-05-17T14:01:43.869Z,1.73
2023-05-17T14:04:11.946Z,1.52
2023-05-17T14:06:39.672Z,1.83
2023-05-17T14:09:07.702Z,1.20
2023-05-17T14:11:35.706Z,1.50
2023-05-17T14:14:04.229Z,1.40
2023-05-17T14:16:31.929Z,1.87
2023-05-17T14:19:03.540Z,1.60
2023-05-17T14:21:32.148Z,1.45
2023-05-17T14:23:59.916Z,2.53
2023-05-17T14:26:27.543Z,1.90
2023-05-17T14:28:55.019Z,1.87
2023-05-17T14:31:22.751Z,1.90
2023-05-17T14:33:51.211Z,1.90
2023-05-17T14:36:18.736Z,2.28
2023-05-17T14:38:46.477Z,2.03
2023-05-17T14:41:13.899Z,1.70
2023-05-17T14:43:41.384Z,1.73
2023-05-17T14:46:09.133Z,1.80
2023-05-17T14:48:37.026Z,1.45
2023-05-17T14:51:04.712Z,1.25
2023-05-17T14:53:32.521Z,1.48
2023-05-17T14:55:59.982Z,1.73
2023-05-17T14:58:27.900Z,1.40
2023-05-17T15:01:04.909Z,1.42
2023-05-17T15:03:33.780Z,1.35
2023-05-17T15:06:04.215Z,1.48
2023-05-17T15:08:34.599Z,1.95
2023-05-17T15:11:03.010Z,1.67
2023-05-17T15:13:30.492Z,1.73
2023-05-17T15:15:58.053Z,2.17
2023-05-17T15:18:25.983Z,1.95
2023-05-17T15:20:53.464Z,1.75
2023-05-17T15:23:21.045Z,1.85
2023-05-17T15:25:48.741Z,1.92
2023-05-17T15:28:16.146Z,2.12
2023-05-17T15:30:43.600Z,2.12
2023-05-17T15:33:11.752Z,2.08
2023-05-17T15:35:42.246Z,2.28
2023-05-17T15:38:09.663Z,2.10
2023-05-17T15:40:37.716Z,1.92
2023-05-17T15:43:05.208Z,1.50
2023-05-17T15:45:33.120Z,1.80
2023-05-17T15:48:02.288Z,1.80
2023-05-17T15:50:29.871Z,2.20
2023-05-17T15:52:57.342Z,2.03
2023-05-17T15:55:25.076Z,1.98
2023-05-17T15:57:52.532Z,1.85
2023-05-17T16:00:20.333Z,1.92
2023-05-17T16:02:48.228Z,2.00
2023-05-17T16:05:15.751Z,2.22
2023-05-17T16:07:43.185Z,1.67
2023-05-17T16:10:11.339Z,1.48
2023-05-17T16:12:38.826Z,1.73
2023-05-17T16:15:06.754Z,1.65
2023-05-17T16:17:34.667Z,1.70
2023-05-17T16:20:02.335Z,1.50
2023-05-17T16:22:30.000Z,1.62
2023-05-17T16:24:57.687Z,1.98
2023-05-17T16:27:25.178Z,1.73
2023-05-17T16:29:52.660Z,1.52
2023-05-17T16:32:20.624Z,1.98
2023-05-17T16:34:48.138Z,1.30
2023-05-17T16:37:15.867Z,1.58
2023-05-17T16:39:43.558Z,1.70
2023-05-17T16:42:11.095Z,1.70
2023-05-17T16:44:38.760Z,1.50
2023-05-17T16:47:06.571Z,1.70
2023-05-17T16:49:34.258Z,1.60
2023-05-17T16:52:01.700Z,1.62
2023-05-17T16:54:29.962Z,1.55
2023-05-17T16:56:57.536Z,1.75
2023-05-17T16:59:25.144Z,1.48
2023-05-17T17:01:52.894Z,1.95
2023-05-17T17:04:20.483Z,1.60
2023-05-17T17:06:47.957Z,1.67
2023-05-17T17:09:16.337Z,1.42
2023-05-17T17:11:43.778Z,1.67
2023-05-17T17:14:11.219Z,1.40
2023-05-17T17:16:39.095Z,1.52
2023-05-17T17:19:06.601Z,1.60
2023-05-17T17:21:38.129Z,1.30
2023-05-17T17:24:06.530Z,1.70
2023-05-17T17:26:37.277Z,1.50
2023-05-17T17:29:05.089Z,1.40
2023-05-17T17:31:32.843Z,1.52
2023-05-17T17:34:00.337Z,1.50
2023-05-17T17:36:27.791Z,1.50
2023-05-17T17:38:55.605Z,1.30
2023-05-17T17:41:23.275Z,1.40
2023-05-17T17:43:50.757Z,1.65
2023-05-17T17:46:18.521Z,1.23
2023-05-17T17:48:46.043Z,1.45
2023-05-17T17:51:13.551Z,1.20
2023-05-17T17:53:42.249Z,1.52
2023-05-17T17:56:09.716Z,1.27
2023-05-17T17:58:37.169Z,1.65
2023-05-17T18:01:04.895Z,1.25
2023-05-17T18:03:32.756Z,1.42
2023-05-17T18:06:00.252Z,1.95
2023-05-17T18:08:27.752Z,1.25
2023-05-17T18:10:55.486Z,1.10
2023-05-17T18:13:23.302Z,1.30
2023-05-17T18:15:50.813Z,1.62
2023-05-17T18:18:18.514Z,1.40
2023-05-17T18:20:46.129Z,1.40
2023-05-17T18:23:13.721Z,1.10
2023-05-17T18:25:41.482Z,1.40
2023-05-17T18:28:09.185Z,1.20
2023-05-17T18:30:36.732Z,1.10
2023-05-17T18:33:06.996Z,1.42
2023-05-17T18:38:02.613Z,1.15
2023-05-17T18:40:31.162Z,1.17
2023-05-17T18:42:59.066Z,1.30
2023-05-17T18:45:26.681Z,1.20
2023-05-17T18:47:54.551Z,1.30
2023-05-17T18:50:22.303Z,1.10
2023-05-17T18:52:50.336Z,1.33
2023-05-17T18:55:19.282Z,1.25
2023-05-17T18:57:47.213Z,1.20
2023-05-17T19:00:15.742Z,1.00
2023-05-17T19:02:43.807Z,1.17
2023-05-17T19:05:11.689Z,1.37
2023-05-17T19:07:39.639Z,1.27
2023-05-17T19:10:09.475Z,1.45
2023-05-17T19:12:37.091Z,1.25
2023-05-17T19:15:05.143Z,1.30
2023-05-17T19:17:34.200Z,1.02
2023-05-17T19:20:03.572Z,1.20
2023-05-17T19:22:31.647Z,0.90
2023-05-17T19:25:01.423Z,1.27
2023-05-17T19:29:57.652Z,1.35
2023-05-17T19:32:26.461Z,1.02
2023-05-17T19:34:55.338Z,1.20
2023-05-17T19:37:23.103Z,0.90
2023-05-17T19:39:51.133Z,0.98
2023-05-17T19:42:19.208Z,1.40
2023-05-17T19:44:46.830Z,1.20
2023-05-17T19:47:19.238Z,1.42
2023-05-17T19:49:46.903Z,1.20
2023-05-17T19:52:15.164Z,1.23
2023-05-17T19:54:43.263Z,1.12
2023-05-17T19:57:11.324Z,1.00
2023-05-17T19:59:40.118Z,1.70
2023-05-17T20:02:08.577Z,1.20
2023-05-17T20:04:37.298Z,1.30
2023-05-17T20:07:05.638Z,1.60
2023-05-17T20:09:33.491Z,1.48
2023-05-17T20:12:01.983Z,1.52
2023-05-17T20:14:29.691Z,1.20
2023-05-17T20:16:57.787Z,1.30
2023-05-17T20:19:25.745Z,1.10
2023-05-17T20:21:53.393Z,1.20
2023-05-17T20:24:23.456Z,1.30
2023-05-17T20:26:51.213Z,1.20
2023-05-17T20:29:19.043Z,1.23
2023-05-17T20:31:46.567Z,1.15
2023-05-17T20:34:14.644Z,1.17
2023-05-17T20:36:42.317Z,1.10
2023-05-17T20:39:10.175Z,1.15
2023-05-17T20:41:37.959Z,1.40
2023-05-17T20:44:05.544Z,1.23
2023-05-17T20:46:33.241Z,1.10
2023-05-17T20:49:01.768Z,1.50
2023-05-17T20:51:29.347Z,1.27
2023-05-17T20:53:57.102Z,0.90
2023-05-17T20:56:25.568Z,1.20
2023-05-17T20:58:53.027Z,1.27
2023-05-17T21:01:20.849Z,1.20
2023-05-17T21:03:49.866Z,1.00
2023-05-17T21:06:17.613Z,1.27
2023-05-17T21:08:45.104Z,1.00
2023-05-17T21:11:19.279Z,1.12
2023-05-17T21:13:47.427Z,1.40
2023-05-17T21:16:15.196Z,1.30
2023-05-17T21:18:44.952Z,0.98
2023-05-17T21:21:12.593Z,1.30
2023-05-17T21:23:40.352Z,0.98
2023-05-17T21:26:07.912Z,1.00
2023-05-17T21:28:35.389Z,1.45
2023-05-17T21:31:03.631Z,1.02
2023-05-17T21:33:32.445Z,1.35
2023-05-17T21:35:59.914Z,1.23
2023-05-17T21:38:27.637Z,1.35
2023-05-17T21:40:55.673Z,1.05
2023-05-17T21:43:23.168Z,1.02
2023-05-17T21:45:51.209Z,1.10
2023-05-17T21:48:18.669Z,1.10
2023-05-17T21:50:46.148Z,0.93
2023-05-17T21:53:13.916Z,1.35
2023-05-17T21:56:00.687Z,1.30
2023-05-17T21:58:30.445Z,1.10
2023-05-17T22:00:58.338Z,1.20
2023-05-17T22:03:26.220Z,1.23
2023-05-17T22:05:53.786Z,1.25
2023-05-17T22:08:21.233Z,1.45
2023-05-17T22:10:50.216Z,1.40
2023-05-17T22:13:18.372Z,1.42
2023-05-17T22:15:46.035Z,1.20
2023-05-17T22:18:13.859Z,1.60
2023-05-17T22:20:41.435Z,1.35
2023-05-17T22:23:08.957Z,0.90
2023-05-17T22:25:36.666Z,1.30
2023-05-17T22:28:04.136Z,1.20
2023-05-17T22:30:31.946Z,0.98
2023-05-17T22:33:01.006Z,1.20
2023-05-17T22:35:28.550Z,1.00
2023-05-17T22:37:56.085Z,0.90
2023-05-17T22:40:23.794Z,1.23
2023-05-17T22:42:51.984Z,1.02
2023-05-17T22:45:38.125Z,1.27
2023-05-17T22:48:07.224Z,1.08
2023-05-17T22:50:34.723Z,0.82
2023-05-17T22:53:02.154Z,1.00
2023-05-17T22:55:30.027Z,1.33
2023-05-17T22:57:57.777Z,1.25
2023-05-17T23:00:26.252Z,0.95
2023-05-17T23:02:54.076Z,1.05
2023-05-17T23:05:22.279Z,1.12
2023-05-17T23:07:49.742Z,1.10
2023-05-17T23:10:17.580Z,1.10
2023-05-17T23:12:45.079Z,1.30
2023-05-17T23:15:12.634Z,1.20
2023-05-17T23:17:41.270Z,1.08
2023-05-17T23:20:10.168Z,0.80
2023-05-17T23:22:38.863Z,1.00
2023-05-17T23:25:06.929Z,1.20
2023-05-17T23:27:35.440Z,1.10
2023-05-17T23:30:03.108Z,1.27
2023-05-17T23:32:32.698Z,0.90
2023-05-17T23:35:06.207Z,1.02
2023-05-17T23:37:34.670Z,1.30
2023-05-17T23:40:02.438Z,1.08
2023-05-17T23:42:30.490Z,1.33
2023-05-17T23:45:01.890Z,1.37
2023-05-17T23:47:30.813Z,1.50
2023-05-17T23:49:58.585Z,0.98
2023-05-17T23:52:30.035Z,1.70
2023-05-17T23:54:59.016Z,1.00
2023-05-17T23:57:26.525Z,1.10
2023-05-17T23:59:53.953Z,1.30
